createdAt,value
2018-05-10T00:09:00.708Z,94.00
2018-05-10T00:14:03.937Z,92.90
2018-05-10T00:19:07.382Z,92.70
2018-05-10T00:24:11.103Z,91.00
2018-05-10T00:29:14.485Z,91.00
2018-05-10T00:34:17.719Z,91.00
2018-05-10T00:39:20.965Z,92.60
2018-05-10T00:44:24.454Z,93.60
2018-05-10T00:49:27.691Z,94.90
2018-05-10T00:54:42.691Z,93.50
2018-05-10T00:59:46.129Z,92.70
2018-05-10T01:04:49.943Z,93.80
2018-05-10T01:09:53.344Z,93.90
2018-05-10T01:14:56.578Z,94.50
2018-05-10T01:20:00.199Z,95.30
2018-05-10T01:25:03.967Z,95.30
2018-05-10T01:30:07.212Z,95.30
2018-05-10T01:35:22.792Z,94.70
2018-05-10T01:40:27.032Z,94.70
2018-05-10T01:45:30.759Z,94.70
2018-05-10T01:50:34.569Z,94.20
2018-05-10T01:55:38.149Z,94.20
2018-05-10T02:00:41.574Z,94.80
2018-05-10T02:05:44.812Z,97.80
2018-05-10T02:10:48.029Z,97.00
2018-05-10T02:15:51.808Z,96.60
2018-05-10T02:20:55.023Z,97.10
2018-05-10T02:25:58.655Z,94.90
2018-05-10T02:36:36.240Z,95.40
2018-05-10T02:41:39.493Z,96.80
2018-05-10T02:46:42.719Z,97.70
2018-05-10T02:51:45.953Z,98.40
2018-05-10T02:56:49.190Z,97.30
2018-05-10T03:01:52.424Z,96.10
2018-05-10T03:06:55.675Z,95.90
2018-05-10T03:11:59.051Z,97.10
2018-05-10T03:17:02.302Z,97.20
2018-05-10T03:22:05.563Z,96.60
2018-05-10T03:27:08.837Z,95.80
2018-05-10T03:32:12.470Z,94.40
2018-05-10T03:37:16.101Z,94.50
2018-05-10T03:42:19.354Z,94.50
2018-05-10T03:47:22.590Z,94.60
2018-05-10T03:52:26.236Z,94.80
2018-05-10T03:57:29.446Z,94.80
2018-05-10T04:02:56.484Z,94.40
2018-05-10T04:08:12.597Z,93.60
2018-05-10T04:13:15.801Z,93.10
2018-05-10T04:18:19.029Z,93.20
2018-05-10T04:23:22.248Z,93.10
2018-05-10T04:28:25.596Z,92.70
2018-05-10T04:33:28.873Z,93.00
2018-05-10T04:38:32.134Z,93.40
2018-05-10T04:43:35.531Z,93.80
2018-05-10T04:48:39.161Z,94.10
2018-05-10T04:53:42.423Z,94.10
2018-05-10T04:58:45.671Z,94.90
2018-05-10T05:03:48.896Z,95.20
2018-05-10T05:08:52.186Z,94.90
2018-05-10T05:13:55.433Z,94.70
2018-05-10T05:18:58.650Z,94.40
2018-05-10T05:24:01.884Z,93.60
2018-05-10T05:29:05.532Z,90.80
2018-05-10T05:34:08.774Z,90.80
2018-05-10T05:39:12.052Z,90.00
2018-05-10T05:44:15.342Z,89.00
2018-05-10T05:49:18.572Z,89.00
2018-05-10T05:54:21.840Z,88.50
2018-05-10T05:59:25.455Z,89.30
2018-05-10T06:04:29.086Z,89.30
2018-05-10T06:09:32.739Z,88.90
2018-05-10T06:14:35.963Z,88.90
2018-05-10T06:19:39.205Z,88.90
2018-05-10T06:24:42.529Z,88.90
2018-05-10T06:29:46.338Z,88.50
2018-05-10T06:34:49.576Z,87.90
2018-05-10T06:39:52.798Z,87.70
2018-05-10T06:44:56.149Z,87.20
2018-05-10T06:49:59.792Z,87.00
2018-05-10T06:55:03.051Z,87.00
2018-05-10T07:00:06.324Z,86.40
2018-05-10T07:05:09.544Z,86.80
2018-05-10T07:10:12.796Z,86.50
2018-05-10T07:15:16.053Z,86.40
2018-05-10T07:20:19.367Z,86.80
2018-05-10T07:25:22.752Z,84.90
2018-05-10T07:30:25.844Z,82.80
2018-05-10T07:35:29.149Z,83.80
2018-05-10T07:40:32.382Z,84.70
2018-05-10T07:45:35.632Z,85.70
2018-05-10T07:50:39.248Z,85.50
2018-05-10T07:55:42.902Z,84.60
2018-05-10T08:00:46.131Z,84.60
2018-05-10T08:05:49.394Z,84.00
2018-05-10T08:10:52.626Z,84.10
2018-05-10T08:15:55.956Z,82.60
2018-05-10T08:20:59.204Z,82.40
2018-05-10T08:26:02.864Z,81.70
2018-05-10T08:31:06.178Z,81.70
2018-05-10T08:36:09.411Z,81.10
2018-05-10T08:41:12.656Z,81.70
2018-05-10T08:46:15.924Z,82.40
2018-05-10T08:51:19.554Z,81.90
2018-05-10T08:56:23.249Z,82.80
2018-05-10T09:01:26.487Z,82.80
2018-05-10T09:06:29.853Z,83.50
2018-05-10T09:11:34.193Z,84.10
2018-05-10T09:16:37.644Z,83.70
2018-05-10T09:21:40.999Z,84.30
2018-05-10T09:26:44.333Z,82.80
2018-05-10T09:31:48.243Z,82.50
2018-05-10T09:36:51.993Z,81.20
2018-05-10T09:41:55.415Z,81.20
2018-05-10T09:46:58.677Z,80.80
2018-05-10T09:52:03.032Z,80.90
2018-05-10T09:57:06.734Z,82.20
2018-05-10T10:02:10.023Z,82.20
2018-05-10T10:07:13.258Z,82.90
2018-05-10T10:12:16.980Z,82.70
2018-05-10T10:17:20.600Z,83.20
2018-05-10T10:22:24.256Z,83.90
2018-05-10T10:27:27.580Z,83.90
2018-05-10T10:32:30.849Z,84.30
2018-05-10T10:37:34.525Z,84.90
2018-05-10T10:42:38.139Z,85.30
2018-05-10T10:47:41.866Z,88.00
2018-05-10T10:52:45.480Z,88.30
2018-05-10T10:57:49.262Z,86.50
2018-05-10T11:02:52.587Z,86.50
2018-05-10T11:07:56.448Z,89.10
2018-05-10T11:12:59.730Z,88.60
2018-05-10T11:18:03.339Z,87.90
2018-05-10T11:23:06.669Z,87.90
2018-05-10T11:28:10.296Z,87.70
2018-05-10T11:33:13.616Z,87.70
2018-05-10T11:38:16.780Z,86.50
2018-05-10T11:43:20.014Z,86.20
2018-05-10T11:48:23.236Z,83.00
2018-05-10T11:53:26.700Z,83.00
2018-05-10T11:58:30.430Z,83.60
2018-05-10T12:03:34.069Z,82.70
2018-05-10T12:08:37.305Z,82.70
2018-05-10T12:13:40.531Z,81.40
2018-05-10T12:18:43.854Z,80.80
2018-05-10T12:23:47.459Z,83.20
2018-05-10T12:28:51.163Z,85.40
2018-05-10T12:33:54.487Z,85.40
2018-05-10T12:38:57.724Z,85.20
2018-05-10T12:44:00.942Z,86.70
2018-05-10T12:49:04.215Z,88.90
2018-05-10T12:54:07.633Z,89.30
2018-05-10T12:59:10.952Z,90.40
2018-05-10T13:04:14.187Z,87.60
2018-05-10T13:09:17.437Z,87.50
2018-05-10T13:14:20.747Z,85.50
2018-05-10T13:19:23.987Z,85.80
2018-05-10T13:24:27.195Z,84.60
2018-05-10T13:29:30.478Z,84.50
2018-05-10T13:34:34.088Z,84.60
2018-05-10T13:39:38.409Z,84.60
2018-05-10T13:44:42.030Z,81.10
2018-05-10T13:49:46.256Z,82.80
2018-05-10T13:54:49.904Z,83.50
2018-05-10T13:59:53.163Z,83.50
2018-05-10T14:04:56.408Z,83.00
2018-05-10T14:09:59.704Z,83.80
2018-05-10T14:15:03.423Z,83.10
2018-05-10T14:20:06.650Z,83.10
2018-05-10T14:25:10.034Z,83.60
2018-05-10T14:30:13.824Z,84.20
2018-05-10T14:35:17.038Z,84.20
2018-05-10T14:40:20.255Z,85.60
2018-05-10T14:45:23.887Z,86.70
2018-05-10T14:50:27.120Z,86.70
2018-05-10T14:55:30.388Z,86.70
2018-05-10T15:00:34.007Z,87.70
2018-05-10T15:05:37.633Z,88.40
2018-05-10T15:10:40.914Z,88.40
2018-05-10T15:15:44.140Z,89.30
2018-05-10T15:20:47.403Z,89.90
2018-05-10T15:25:50.671Z,91.30
2018-05-10T15:30:54.068Z,92.60
2018-05-10T15:35:57.319Z,92.60
2018-05-10T15:41:00.541Z,91.60
2018-05-10T15:46:03.796Z,92.60
2018-05-10T15:51:07.082Z,95.90
2018-05-10T15:56:10.886Z,99.60
2018-05-10T16:01:14.209Z,99.60
2018-05-10T16:06:17.912Z,97.80
2018-05-10T16:11:22.251Z,97.80
2018-05-10T16:16:25.888Z,98.60
2018-05-10T16:21:29.268Z,98.60
2018-05-10T16:26:32.602Z,97.60
2018-05-10T16:31:36.095Z,98.60
2018-05-10T16:36:39.918Z,92.50
2018-05-10T16:41:43.728Z,89.80
2018-05-10T16:46:49.670Z,91.40
2018-05-10T16:51:52.944Z,91.50
2018-05-10T16:56:56.175Z,92.90
2018-05-10T17:01:59.524Z,93.40
2018-05-10T17:07:03.171Z,93.90
2018-05-10T17:12:06.452Z,93.90
2018-05-10T17:17:10.761Z,91.90
2018-05-10T17:22:14.027Z,91.90
2018-05-10T17:27:17.273Z,90.90
2018-05-10T17:32:20.547Z,90.90
2018-05-10T17:37:24.122Z,90.80
2018-05-10T17:42:27.662Z,89.80
2018-05-10T17:47:31.194Z,90.10
2018-05-10T17:52:34.661Z,88.90
2018-05-10T17:57:39.090Z,87.30
2018-05-10T18:02:43.128Z,88.10
2018-05-10T18:07:46.391Z,87.80
2018-05-10T18:12:49.716Z,88.30
2018-05-10T18:17:55.151Z,88.30
2018-05-10T18:22:58.535Z,88.50
2018-05-10T18:28:02.505Z,88.70
2018-05-10T18:33:06.130Z,88.10
2018-05-10T18:38:09.817Z,89.30
2018-05-10T18:43:13.452Z,89.30
2018-05-10T18:48:17.009Z,89.30
2018-05-10T18:53:20.479Z,89.50
2018-05-10T18:58:24.106Z,89.50
2018-05-10T19:03:27.940Z,89.50
2018-05-10T19:08:31.187Z,89.60
2018-05-10T19:13:34.935Z,89.60
2018-05-10T19:18:38.501Z,88.40
2018-05-10T19:23:42.063Z,88.50
2018-05-10T19:28:45.299Z,89.20
2018-05-10T19:33:48.679Z,89.50
2018-05-10T19:38:51.918Z,89.90
2018-05-10T19:43:55.216Z,90.50
2018-05-10T19:48:58.578Z,90.30
2018-05-10T19:54:01.810Z,90.30
2018-05-10T19:59:05.098Z,91.00
2018-05-10T20:04:08.323Z,90.80
2018-05-10T20:09:11.948Z,90.00
2018-05-10T20:14:15.565Z,90.30
2018-05-10T20:19:19.522Z,89.40
2018-05-10T20:24:23.048Z,89.40
2018-05-10T20:29:26.393Z,90.40
2018-05-10T20:34:29.716Z,90.60
2018-05-10T20:39:33.417Z,91.30
2018-05-10T20:44:36.783Z,91.40
2018-05-10T20:49:40.164Z,91.80
2018-05-10T20:54:43.403Z,91.80
2018-05-10T20:59:46.783Z,92.70
2018-05-10T21:04:50.262Z,92.40
2018-05-10T21:09:54.201Z,92.70
2018-05-10T21:14:57.487Z,92.70
2018-05-10T21:20:00.806Z,92.20
2018-05-10T21:25:04.489Z,92.30
2018-05-10T21:30:07.926Z,92.30
2018-05-10T21:35:11.259Z,92.20
2018-05-10T21:40:14.550Z,92.20
2018-05-10T21:45:18.313Z,91.90
2018-05-10T21:50:27.606Z,92.00
2018-05-10T21:55:31.024Z,92.10
2018-05-10T22:00:34.496Z,91.70
2018-05-10T22:05:38.982Z,91.50
2018-05-10T22:10:42.692Z,92.00
2018-05-10T22:15:46.309Z,93.20
2018-05-10T22:20:49.944Z,94.70
2018-05-10T22:25:53.232Z,94.70
2018-05-10T22:30:56.842Z,96.80
2018-05-10T22:36:00.513Z,97.30
2018-05-10T22:41:03.727Z,97.30
2018-05-10T22:46:07.169Z,98.10
2018-05-10T22:51:10.488Z,98.40
2018-05-10T22:56:14.192Z,96.80
2018-05-10T23:01:17.461Z,96.80
2018-05-10T23:06:20.691Z,96.60
2018-05-10T23:11:23.939Z,96.80
2018-05-10T23:16:27.161Z,97.30
2018-05-10T23:21:30.433Z,98.00
2018-05-10T23:26:34.252Z,97.80
2018-05-10T23:31:38.163Z,98.30
2018-05-10T23:36:41.637Z,98.30
2018-05-10T23:41:44.900Z,97.80
2018-05-10T23:46:48.602Z,98.20
2018-05-10T23:51:51.887Z,98.20
2018-05-10T23:56:55.201Z,98.30
